createdAt,value
2023-01-07T00:01:33.900Z,72.17
2023-01-07T00:04:02.837Z,71.97
2023-01-07T00:06:33.550Z,72.27
2023-01-07T00:09:01.904Z,72.10
2023-01-07T00:11:38.546Z,72.01
2023-01-07T00:14:07.971Z,71.90
2023-01-07T00:16:36.847Z,72.02
2023-01-07T00:19:05.888Z,71.92
2023-01-07T00:21:33.632Z,71.87
2023-01-07T00:24:04.942Z,72.50
2023-01-07T00:26:34.957Z,72.26
2023-01-07T00:29:03.690Z,72.44
2023-01-07T00:31:36.526Z,75.34
2023-01-07T00:34:04.566Z,74.60
2023-01-07T00:36:35.131Z,75.67
2023-01-07T00:39:10.051Z,73.59
2023-01-07T00:41:38.144Z,71.54
2023-01-07T00:44:07.028Z,73.29
2023-01-07T00:46:34.431Z,73.82
2023-01-07T00:49:02.459Z,73.74
2023-01-07T00:51:29.685Z,73.61
2023-01-07T00:53:57.012Z,73.09
2023-01-07T00:56:24.745Z,72.66
2023-01-07T00:58:52.121Z,73.97
2023-01-07T01:01:19.740Z,73.40
2023-01-07T01:03:47.595Z,73.76
2023-01-07T01:06:16.330Z,72.58
2023-01-07T01:08:45.341Z,72.43
2023-01-07T01:11:13.766Z,73.62
2023-01-07T01:13:42.401Z,74.21
2023-01-07T01:16:15.551Z,74.00
2023-01-07T01:18:44.125Z,73.61
2023-01-07T01:21:13.547Z,73.78
2023-01-07T01:23:41.672Z,73.72
2023-01-07T01:26:12.788Z,73.62
2023-01-07T01:28:40.955Z,73.77
2023-01-07T01:31:09.500Z,73.49
2023-01-07T01:33:38.867Z,73.20
2023-01-07T01:36:10.294Z,72.78
2023-01-07T01:38:38.614Z,73.15
2023-01-07T01:41:07.103Z,73.32
2023-01-07T01:43:40.106Z,72.65
2023-01-07T01:46:25.406Z,73.05
2023-01-07T01:49:02.853Z,72.95
2023-01-07T01:51:34.927Z,72.23
2023-01-07T01:54:07.084Z,72.35
2023-01-07T01:56:39.166Z,71.97
2023-01-07T01:59:10.795Z,72.32
2023-01-07T02:01:38.896Z,72.45
2023-01-07T02:04:12.949Z,73.04
2023-01-07T02:07:05.571Z,73.18
2023-01-07T02:09:33.886Z,73.33
2023-01-07T02:12:07.697Z,73.08
2023-01-07T02:14:44.990Z,73.98
2023-01-07T02:17:45.024Z,73.32
2023-01-07T02:20:40.341Z,73.16
2023-01-07T02:23:18.054Z,74.15
2023-01-07T02:25:57.725Z,73.72
2023-01-07T02:28:28.308Z,74.33
2023-01-07T02:31:04.998Z,74.54
2023-01-07T02:33:54.364Z,74.22
2023-01-07T02:36:24.934Z,73.79
2023-01-07T02:39:22.144Z,74.26
2023-01-07T02:41:58.675Z,74.09
2023-01-07T02:44:41.643Z,75.39
2023-01-07T02:47:51.165Z,74.80
2023-01-07T02:50:19.602Z,74.11
2023-01-07T02:52:47.085Z,73.98
2023-01-07T02:55:19.283Z,73.62
2023-01-07T02:58:05.156Z,73.21
2023-01-07T03:01:05.682Z,73.65
2023-01-07T03:03:48.728Z,74.05
2023-01-07T03:06:43.631Z,74.39
2023-01-07T03:09:20.860Z,74.17
2023-01-07T03:11:54.235Z,74.45
2023-01-07T03:14:32.519Z,73.51
2023-01-07T03:17:05.959Z,73.59
2023-01-07T03:19:36.553Z,73.84
2023-01-07T03:22:09.116Z,74.16
2023-01-07T03:24:38.980Z,73.92
2023-01-07T03:27:08.240Z,73.57
2023-01-07T03:29:38.245Z,74.22
2023-01-07T03:32:24.444Z,74.15
2023-01-07T03:34:53.645Z,74.08
2023-01-07T03:37:23.711Z,74.64
2023-01-07T03:39:52.721Z,74.58
2023-01-07T03:42:42.289Z,74.48
2023-01-07T03:45:16.119Z,73.54
2023-01-07T03:47:50.265Z,72.87
2023-01-07T03:50:20.055Z,72.90
2023-01-07T03:52:51.301Z,73.45
2023-01-07T03:55:19.228Z,73.45
2023-01-07T03:57:47.102Z,73.56
2023-01-07T04:00:15.524Z,73.39
2023-01-07T04:02:45.021Z,73.56
2023-01-07T04:05:15.447Z,73.84
2023-01-07T04:07:43.046Z,73.74
2023-01-07T04:10:11.602Z,73.71
2023-01-07T04:12:38.983Z,74.02
2023-01-07T04:15:07.199Z,72.91
2023-01-07T04:17:35.049Z,73.33
2023-01-07T04:20:02.434Z,73.65
2023-01-07T04:22:30.725Z,74.02
2023-01-07T04:24:58.669Z,73.59
2023-01-07T04:27:26.183Z,72.38
2023-01-07T04:29:53.540Z,72.27
2023-01-07T04:32:21.854Z,72.64
2023-01-07T04:34:49.825Z,72.68
2023-01-07T04:37:17.556Z,72.75
2023-01-07T04:39:48.973Z,73.47
2023-01-07T04:42:17.027Z,73.57
2023-01-07T04:44:44.697Z,73.47
2023-01-07T04:47:12.285Z,73.02
2023-01-07T04:49:39.926Z,73.61
2023-01-07T04:52:09.189Z,72.67
2023-01-07T04:54:36.762Z,71.87
2023-01-07T04:57:04.357Z,72.42
2023-01-07T04:59:32.649Z,73.01
2023-01-07T05:02:00.810Z,72.78
2023-01-07T05:04:28.462Z,72.63
2023-01-07T05:06:56.109Z,72.34
2023-01-07T05:09:24.528Z,72.44
2023-01-07T05:11:52.237Z,71.92
2023-01-07T05:14:21.252Z,71.88
2023-01-07T05:16:51.187Z,72.87
2023-01-07T05:19:19.501Z,73.21
2023-01-07T05:21:48.272Z,73.68
2023-01-07T05:24:16.025Z,73.64
2023-01-07T05:26:43.975Z,74.38
2023-01-07T05:29:12.929Z,73.93
2023-01-07T05:31:42.592Z,75.00
2023-01-07T05:34:10.252Z,74.43
2023-01-07T05:36:38.167Z,74.28
2023-01-07T05:39:06.000Z,75.01
2023-01-07T05:41:33.755Z,75.38
2023-01-07T05:44:02.588Z,75.57
2023-01-07T05:46:30.736Z,74.90
2023-01-07T05:48:58.069Z,74.27
2023-01-07T05:51:26.893Z,73.51
2023-01-07T05:53:55.191Z,74.86
2023-01-07T05:56:22.634Z,74.20
2023-01-07T05:58:50.272Z,75.34
2023-01-07T06:01:17.966Z,74.40
2023-01-07T06:03:45.862Z,74.31
2023-01-07T06:06:13.295Z,74.17
2023-01-07T06:08:40.613Z,73.89
2023-01-07T06:11:08.995Z,74.10
2023-01-07T06:13:36.896Z,74.35
2023-01-07T06:16:09.126Z,74.02
2023-01-07T06:18:37.114Z,73.86
2023-01-07T06:21:04.593Z,73.42
2023-01-07T06:23:31.853Z,72.55
2023-01-07T06:25:59.591Z,72.58
2023-01-07T06:28:27.419Z,73.01
2023-01-07T06:30:54.818Z,73.12
2023-01-07T06:33:22.868Z,73.06
2023-01-07T06:35:52.282Z,72.84
2023-01-07T06:38:19.783Z,73.30
2023-01-07T06:40:47.645Z,73.47
2023-01-07T06:43:15.004Z,73.45
2023-01-07T06:45:42.336Z,73.41
2023-01-07T06:48:10.171Z,73.21
2023-01-07T06:50:37.870Z,73.26
2023-01-07T06:53:05.745Z,73.29
2023-01-07T06:55:33.799Z,73.76
2023-01-07T06:58:01.146Z,73.93
2023-01-07T07:00:29.004Z,73.34
2023-01-07T07:02:57.706Z,73.06
2023-01-07T07:05:29.685Z,72.83
2023-01-07T07:07:57.595Z,73.31
2023-01-07T07:10:24.970Z,73.62
2023-01-07T07:12:53.100Z,73.73
2023-01-07T07:15:21.837Z,73.50
2023-01-07T07:17:49.328Z,73.91
2023-01-07T07:20:16.898Z,73.54
2023-01-07T07:22:48.861Z,74.63
2023-01-07T07:25:16.292Z,76.04
2023-01-07T07:27:47.093Z,75.18
2023-01-07T07:30:15.810Z,75.35
2023-01-07T07:32:43.485Z,74.90
2023-01-07T07:35:12.190Z,78.62
2023-01-07T07:37:40.253Z,79.10
2023-01-07T07:40:09.325Z,82.07
2023-01-07T07:43:09.610Z,81.76
2023-01-07T07:45:26.748Z,82.02
2023-01-07T07:47:54.821Z,82.23
2023-01-07T07:50:22.463Z,81.91
2023-01-07T07:52:50.110Z,80.49
2023-01-07T07:55:20.477Z,80.24
2023-01-07T07:57:55.563Z,79.08
2023-01-07T08:00:23.716Z,79.08
2023-01-07T08:02:51.413Z,78.23
2023-01-07T08:05:18.863Z,78.22
2023-01-07T08:07:46.540Z,78.52
2023-01-07T08:10:14.397Z,79.54
2023-01-07T08:12:45.060Z,79.14
2023-01-07T08:15:13.249Z,77.45
2023-01-07T08:17:41.039Z,76.98
2023-01-07T08:20:08.981Z,75.73
2023-01-07T08:22:36.248Z,73.58
2023-01-07T08:25:04.115Z,72.75
2023-01-07T08:27:31.442Z,73.03
2023-01-07T08:29:58.809Z,72.41
2023-01-07T08:32:26.544Z,72.57
2023-01-07T08:34:53.932Z,72.73
2023-01-07T08:37:21.301Z,70.67
2023-01-07T08:39:48.971Z,71.47
2023-01-07T08:42:16.557Z,70.17
2023-01-07T08:44:44.140Z,69.68
2023-01-07T08:47:12.190Z,69.04
2023-01-07T08:49:39.555Z,67.80
2023-01-07T08:52:06.934Z,68.18
2023-01-07T08:54:34.698Z,67.59
2023-01-07T08:57:02.407Z,66.35
2023-01-07T08:59:30.115Z,66.07
2023-01-07T09:01:58.435Z,66.27
2023-01-07T09:04:26.171Z,65.23
2023-01-07T09:06:53.591Z,64.24
2023-01-07T09:09:22.350Z,64.03
2023-01-07T09:11:49.762Z,64.15
2023-01-07T09:14:17.099Z,62.92
2023-01-07T09:16:44.903Z,62.49
2023-01-07T09:19:12.295Z,62.62
2023-01-07T09:21:39.622Z,62.17
2023-01-07T09:24:07.644Z,60.68
2023-01-07T09:26:34.945Z,61.28
2023-01-07T09:29:02.609Z,60.17
2023-01-07T09:31:30.605Z,59.94
2023-01-07T09:33:58.086Z,59.84
2023-01-07T09:36:27.187Z,58.04
2023-01-07T09:38:54.912Z,57.45
2023-01-07T09:41:35.061Z,58.83
2023-01-07T09:44:31.438Z,56.87
2023-01-07T09:47:00.527Z,56.22
2023-01-07T09:49:32.974Z,56.42
2023-01-07T09:52:26.553Z,55.01
2023-01-07T09:55:03.248Z,54.69
2023-01-07T09:57:30.628Z,52.69
2023-01-07T09:59:58.219Z,53.42
2023-01-07T10:02:51.108Z,53.92
2023-01-07T10:06:16.404Z,53.41
2023-01-07T10:09:07.674Z,53.64
2023-01-07T10:11:55.428Z,53.49
2023-01-07T10:14:39.136Z,52.60
2023-01-07T10:17:22.145Z,51.74
2023-01-07T10:20:02.252Z,52.88
2023-01-07T10:23:02.775Z,53.01
2023-01-07T10:25:36.863Z,53.31
2023-01-07T10:28:11.220Z,53.64
2023-01-07T10:30:42.888Z,52.67
2023-01-07T10:33:20.369Z,51.97
2023-01-07T10:35:51.732Z,53.56
2023-01-07T10:38:21.090Z,52.46
2023-01-07T10:40:59.260Z,51.15
2023-01-07T10:43:51.825Z,51.63
2023-01-07T10:46:45.401Z,51.35
2023-01-07T10:49:47.503Z,50.56
2023-01-07T10:52:31.513Z,48.60
2023-01-07T10:55:25.529Z,49.62
2023-01-07T10:57:53.049Z,47.98
2023-01-07T11:00:21.163Z,49.84
2023-01-07T11:02:55.356Z,49.25
2023-01-07T11:05:25.505Z,49.44
2023-01-07T11:08:04.679Z,48.29
2023-01-07T11:10:37.000Z,47.81
2023-01-07T11:13:08.563Z,48.04
2023-01-07T11:15:41.290Z,46.68
2023-01-07T11:18:52.792Z,46.98
2023-01-07T11:21:42.940Z,48.16
2023-01-07T11:24:35.795Z,47.65
2023-01-07T11:27:17.134Z,47.07
2023-01-07T11:30:13.364Z,47.27
2023-01-07T11:32:41.525Z,46.75
2023-01-07T11:35:22.610Z,46.45
2023-01-07T11:37:50.908Z,46.14
2023-01-07T11:40:25.154Z,45.77
2023-01-07T11:43:02.990Z,44.28
2023-01-07T11:45:37.488Z,43.67
2023-01-07T11:48:05.210Z,42.03
2023-01-07T11:50:41.191Z,42.54
2023-01-07T11:53:14.983Z,42.60
2023-01-07T11:55:57.753Z,43.00
2023-01-07T11:58:31.109Z,41.30
2023-01-07T12:01:11.882Z,41.13
2023-01-07T12:03:43.534Z,39.99
2023-01-07T12:06:19.488Z,39.22
2023-01-07T12:08:55.213Z,38.10
2023-01-07T12:11:23.241Z,36.77
2023-01-07T12:13:55.526Z,36.14
2023-01-07T12:16:29.053Z,35.56
2023-01-07T12:19:45.489Z,36.01
2023-01-07T12:22:58.745Z,36.55
2023-01-07T12:25:40.955Z,36.26
2023-01-07T12:28:24.191Z,36.60
2023-01-07T12:31:07.155Z,36.35
2023-01-07T12:33:48.347Z,37.02
2023-01-07T12:36:45.689Z,37.51
2023-01-07T12:39:26.083Z,36.33
2023-01-07T12:42:06.873Z,36.14
2023-01-07T12:44:39.684Z,35.21
2023-01-07T12:47:32.379Z,34.86
2023-01-07T12:50:10.872Z,34.50
2023-01-07T12:53:04.597Z,32.78
2023-01-07T12:55:45.151Z,31.84
2023-01-07T12:58:25.794Z,31.99
2023-01-07T13:01:19.594Z,32.26
2023-01-07T13:03:54.793Z,31.35
2023-01-07T13:06:37.383Z,31.83
2023-01-07T13:09:23.082Z,31.65
2023-01-07T13:12:40.889Z,30.90
2023-01-07T13:15:10.575Z,30.45
2023-01-07T13:17:38.261Z,30.07
2023-01-07T13:20:11.737Z,28.77
2023-01-07T13:22:56.947Z,28.23
2023-01-07T13:25:48.987Z,27.05
2023-01-07T13:28:25.516Z,26.35
2023-01-07T13:30:59.021Z,25.92
2023-01-07T13:33:41.040Z,25.61
2023-01-07T13:36:29.082Z,25.21
2023-01-07T13:39:41.574Z,25.07
2023-01-07T13:42:37.225Z,26.70
2023-01-07T13:45:25.118Z,29.66
2023-01-07T13:47:55.743Z,32.10
2023-01-07T13:50:42.038Z,34.07
2023-01-07T13:53:15.913Z,35.71
2023-01-07T13:55:46.347Z,37.26
2023-01-07T13:58:29.397Z,38.61
2023-01-07T14:01:09.528Z,39.93
2023-01-07T14:03:53.789Z,40.56
2023-01-07T14:06:21.159Z,41.45
2023-01-07T14:08:50.785Z,42.12
2023-01-07T14:11:30.344Z,43.11
2023-01-07T14:14:08.203Z,44.47
2023-01-07T14:17:00.129Z,45.09
2023-01-07T14:19:39.862Z,45.00
2023-01-07T14:22:27.840Z,45.58
2023-01-07T14:25:42.235Z,46.27
2023-01-07T14:28:39.615Z,46.74
2023-01-07T14:31:21.077Z,46.99
2023-01-07T14:33:51.972Z,47.54
2023-01-07T14:36:19.894Z,48.18
2023-01-07T14:38:57.542Z,47.97
2023-01-07T14:41:25.925Z,48.86
2023-01-07T14:44:05.711Z,48.73
2023-01-07T14:46:44.196Z,49.81
2023-01-07T14:49:14.660Z,50.25
2023-01-07T14:51:56.565Z,50.17
2023-01-07T14:54:33.052Z,49.92
2023-01-07T14:57:11.038Z,50.42
2023-01-07T14:59:53.481Z,50.12
2023-01-07T15:03:00.920Z,49.80
2023-01-07T15:05:44.592Z,50.29
2023-01-07T15:08:37.381Z,50.35
2023-01-07T15:11:41.481Z,51.55
2023-01-07T15:14:46.210Z,51.51
2023-01-07T15:17:15.660Z,52.09
2023-01-07T15:19:44.499Z,51.98
2023-01-07T15:22:23.973Z,52.46
2023-01-07T15:25:16.080Z,52.28
2023-01-07T15:28:04.978Z,53.01
2023-01-07T15:31:01.927Z,53.93
2023-01-07T15:34:10.106Z,53.63
2023-01-07T15:36:50.241Z,54.56
2023-01-07T15:39:28.356Z,55.21
2023-01-07T15:41:57.950Z,55.84
2023-01-07T15:44:39.530Z,57.57
2023-01-07T15:47:39.259Z,56.65
2023-01-07T15:50:27.342Z,57.08
2023-01-07T15:53:00.220Z,57.04
2023-01-07T15:55:36.549Z,57.13
2023-01-07T15:58:13.268Z,56.70
2023-01-07T16:00:41.230Z,57.26
2023-01-07T16:03:16.213Z,56.87
2023-01-07T16:05:44.331Z,57.13
2023-01-07T16:08:30.024Z,57.58
2023-01-07T16:11:22.400Z,58.88
2023-01-07T16:13:57.965Z,58.66
2023-01-07T16:16:26.371Z,58.79
2023-01-07T16:18:55.807Z,58.64
2023-01-07T16:21:27.380Z,59.01
2023-01-07T16:23:55.531Z,58.96
2023-01-07T16:26:37.810Z,58.50
2023-01-07T16:29:20.691Z,59.25
2023-01-07T16:31:48.733Z,58.73
2023-01-07T16:34:39.069Z,60.13
2023-01-07T16:37:15.562Z,60.79
2023-01-07T16:39:47.510Z,61.12
2023-01-07T16:42:27.631Z,61.94
2023-01-07T16:44:55.399Z,61.54
2023-01-07T16:47:32.853Z,61.88
2023-01-07T16:50:16.184Z,61.40
2023-01-07T16:52:55.007Z,60.83
2023-01-07T16:55:44.654Z,61.73
2023-01-07T16:58:36.602Z,62.19
2023-01-07T17:01:05.411Z,62.34
2023-01-07T17:03:49.659Z,63.55
2023-01-07T17:06:23.113Z,63.84
2023-01-07T17:08:53.079Z,63.53
2023-01-07T17:11:26.961Z,63.55
2023-01-07T17:13:54.385Z,63.59
2023-01-07T17:16:32.628Z,63.21
2023-01-07T17:19:23.860Z,63.23
2023-01-07T17:21:53.545Z,66.20
2023-01-07T17:24:28.036Z,64.85
2023-01-07T17:27:00.190Z,63.90
2023-01-07T17:29:39.487Z,63.83
2023-01-07T17:32:07.325Z,63.41
2023-01-07T17:34:34.721Z,64.51
2023-01-07T17:37:02.034Z,64.80
2023-01-07T17:39:29.777Z,63.74
2023-01-07T17:42:16.038Z,64.70
2023-01-07T17:44:43.793Z,66.03
2023-01-07T17:47:11.510Z,65.91
2023-01-07T17:49:38.987Z,66.69
2023-01-07T17:52:06.707Z,65.42
2023-01-07T17:54:34.240Z,65.39
2023-01-07T17:57:01.633Z,65.53
2023-01-07T17:59:30.568Z,66.01
2023-01-07T18:01:59.302Z,65.55
2023-01-07T18:04:27.115Z,66.06
2023-01-07T18:06:54.614Z,66.59
2023-01-07T18:09:21.838Z,65.30
2023-01-07T18:12:08.489Z,65.57
2023-01-07T18:14:35.970Z,68.18
2023-01-07T18:17:05.000Z,68.44
2023-01-07T18:19:32.332Z,67.70
2023-01-07T18:21:59.909Z,66.21
2023-01-07T18:24:27.600Z,67.39
2023-01-07T18:26:56.514Z,67.93
2023-01-07T18:29:24.239Z,68.59
2023-01-07T18:31:52.008Z,68.14
2023-01-07T18:34:19.348Z,68.08
2023-01-07T18:36:46.929Z,67.81
2023-01-07T18:39:20.509Z,67.54
2023-01-07T18:41:51.546Z,67.33
2023-01-07T18:44:20.634Z,67.86
2023-01-07T18:46:48.662Z,67.73
2023-01-07T18:49:17.283Z,66.95
2023-01-07T18:51:47.143Z,67.10
2023-01-07T18:54:16.504Z,67.44
2023-01-07T18:56:46.301Z,67.72
2023-01-07T18:59:16.851Z,67.17
2023-01-07T19:01:44.352Z,68.00
2023-01-07T19:04:12.149Z,68.32
2023-01-07T19:06:40.631Z,67.70
2023-01-07T19:09:08.850Z,68.36
2023-01-07T19:11:38.606Z,68.37
2023-01-07T19:14:06.355Z,67.95
2023-01-07T19:16:33.999Z,67.19
2023-01-07T19:19:01.542Z,68.01
2023-01-07T19:21:29.160Z,68.50
2023-01-07T19:23:56.494Z,68.51
2023-01-07T19:26:23.903Z,67.68
2023-01-07T19:28:51.693Z,68.28
2023-01-07T19:31:19.095Z,68.90
2023-01-07T19:33:46.558Z,69.31
2023-01-07T19:36:15.811Z,69.24
2023-01-07T19:38:47.382Z,69.41
2023-01-07T19:41:17.498Z,69.11
2023-01-07T19:43:46.631Z,69.08
2023-01-07T19:46:17.119Z,69.33
2023-01-07T19:48:47.537Z,69.02
2023-01-07T19:51:15.004Z,69.14
2023-01-07T19:53:43.487Z,68.28
2023-01-07T19:56:20.244Z,68.04
2023-01-07T20:02:58.204Z,69.43
2023-01-07T20:06:27.374Z,68.33
2023-01-07T20:09:40.487Z,69.46
2023-01-07T20:16:44.853Z,69.35
2023-01-07T20:43:59.693Z,70.28
2023-01-07T20:47:18.607Z,69.51
2023-01-07T20:55:00.676Z,70.03
2023-01-07T20:57:51.478Z,69.87
2023-01-07T21:01:37.275Z,69.88
2023-01-07T21:05:29.276Z,69.80
2023-01-07T21:09:20.087Z,69.47
2023-01-07T21:13:00.814Z,69.70
2023-01-07T21:19:47.401Z,70.43
2023-01-07T21:22:17.960Z,70.67
2023-01-07T21:25:01.270Z,69.97
2023-01-07T21:28:25.835Z,69.63
2023-01-07T21:31:39.626Z,69.76
2023-01-07T21:35:14.853Z,69.52
2023-01-07T21:42:31.718Z,70.22
2023-01-07T21:45:30.327Z,70.49
2023-01-07T21:48:49.153Z,71.21
2023-01-07T21:51:48.712Z,71.71
2023-01-07T21:54:54.691Z,71.13
2023-01-07T21:57:56.161Z,71.45
2023-01-07T22:00:59.952Z,69.27
2023-01-07T22:03:32.074Z,70.93
2023-01-07T22:14:19.996Z,71.92
2023-01-07T22:17:30.399Z,71.58
2023-01-07T22:24:33.104Z,71.81
2023-01-07T22:27:22.923Z,71.67
2023-01-07T22:34:08.710Z,71.23
2023-01-07T22:40:43.821Z,71.41
2023-01-07T22:43:55.931Z,70.81
2023-01-07T22:50:51.448Z,71.48
2023-01-07T22:53:58.702Z,71.21
2023-01-07T22:56:37.673Z,71.86
2023-01-07T22:59:13.110Z,71.38
2023-01-07T23:01:55.539Z,71.73
2023-01-07T23:04:35.321Z,70.99
2023-01-07T23:07:35.506Z,71.35
2023-01-07T23:10:27.858Z,71.97
2023-01-07T23:16:31.438Z,71.84
2023-01-07T23:22:35.704Z,71.71
2023-01-07T23:25:45.905Z,72.02
2023-01-07T23:28:41.800Z,71.74
2023-01-07T23:31:17.344Z,72.24
2023-01-07T23:34:15.763Z,72.30
2023-01-07T23:37:11.276Z,72.57
2023-01-07T23:40:22.440Z,72.61
2023-01-07T23:42:55.792Z,71.96
2023-01-07T23:45:24.414Z,71.31
2023-01-07T23:47:52.056Z,71.24
2023-01-07T23:50:19.425Z,71.97
2023-01-07T23:52:47.889Z,72.22
2023-01-07T23:55:15.634Z,72.50
2023-01-07T23:57:43.028Z,72.21
